createdAt,value
2019-04-21T00:02:30.731Z,37.50
2019-04-21T00:05:06.064Z,37.40
2019-04-21T00:07:49.517Z,37.30
2019-04-21T00:10:16.817Z,37.80
2019-04-21T00:12:44.011Z,37.80
2019-04-21T00:15:06.130Z,38.10
2019-04-21T00:17:27.067Z,38.00
2019-04-21T00:20:09.239Z,38.10
2019-04-21T00:22:41.186Z,38.40
2019-04-21T00:25:16.342Z,38.40
2019-04-21T00:27:44.265Z,38.20
2019-04-21T00:30:19.894Z,38.50
2019-04-21T00:32:42.909Z,39.60
2019-04-21T00:35:04.673Z,38.60
2019-04-21T00:37:50.105Z,38.90
2019-04-21T00:40:22.278Z,39.40
2019-04-21T00:42:52.472Z,39.10
2019-04-21T00:45:16.809Z,39.20
2019-04-21T00:47:52.923Z,39.10
2019-04-21T00:50:25.655Z,39.50
2019-04-21T00:53:00.921Z,39.30
2019-04-21T00:55:42.975Z,39.20
2019-04-21T00:58:10.506Z,39.40
2019-04-21T01:00:32.537Z,39.70
2019-04-21T01:03:09.645Z,39.50
2019-04-21T01:05:42.278Z,40.50
2019-04-21T01:08:05.116Z,40.20
2019-04-21T01:10:28.756Z,40.20
2019-04-21T01:13:13.948Z,40.20
2019-04-21T01:15:43.943Z,40.30
2019-04-21T01:18:12.938Z,40.90
2019-04-21T01:20:18.212Z,41.00
2019-04-21T01:22:46.980Z,41.00
2019-04-21T01:25:22.948Z,41.00
2019-04-21T01:27:59.340Z,41.20
2019-04-21T01:30:34.543Z,40.40
2019-04-21T01:33:08.251Z,40.80
2019-04-21T01:35:40.253Z,40.60
2019-04-21T01:38:19.566Z,41.00
2019-04-21T01:40:41.115Z,40.90
2019-04-21T01:43:10.192Z,41.00
2019-04-21T01:45:37.037Z,41.60
2019-04-21T01:48:06.659Z,41.80
2019-04-21T01:50:42.870Z,41.80
2019-04-21T01:53:24.816Z,41.80
2019-04-21T01:56:11.683Z,41.70
2019-04-21T01:58:33.197Z,42.20
2019-04-21T02:01:10.109Z,41.90
2019-04-21T02:03:54.462Z,42.10
2019-04-21T02:06:18.244Z,42.20
2019-04-21T02:08:44.753Z,41.60
2019-04-21T02:11:17.678Z,42.20
2019-04-21T02:13:53.355Z,42.70
2019-04-21T02:16:19.024Z,42.50
2019-04-21T02:18:49.381Z,42.50
2019-04-21T02:21:14.801Z,42.50
2019-04-21T02:23:54.315Z,43.00
2019-04-21T02:26:22.653Z,42.90
2019-04-21T02:28:55.860Z,43.20
2019-04-21T02:31:40.485Z,43.20
2019-04-21T02:33:58.296Z,43.50
2019-04-21T02:36:40.371Z,43.90
2019-04-21T02:39:07.423Z,44.00
2019-04-21T02:41:32.993Z,44.30
2019-04-21T02:49:11.241Z,44.00
2019-04-21T02:51:39.632Z,44.40
2019-04-21T02:54:34.069Z,45.00
2019-04-21T02:56:39.548Z,44.80
2019-04-21T02:59:05.346Z,44.70
2019-04-21T03:01:43.939Z,44.80
2019-04-21T03:07:10.753Z,45.30
2019-04-21T03:17:05.123Z,45.20
2019-04-21T03:22:07.192Z,45.80
2019-04-21T03:25:00.580Z,46.10
2019-04-21T03:29:35.752Z,46.20
2019-04-21T03:35:14.983Z,45.90
2019-04-21T03:37:11.743Z,46.00
2019-04-21T03:39:45.483Z,46.60
2019-04-21T03:44:37.334Z,46.90
2019-04-21T03:52:15.090Z,46.60
2019-04-21T03:55:12.532Z,46.60
2019-04-21T03:57:46.739Z,46.70
2019-04-21T04:00:16.096Z,47.00
2019-04-21T04:02:45.620Z,46.90
2019-04-21T04:05:15.215Z,46.60
2019-04-21T04:07:49.692Z,47.10
2019-04-21T04:10:13.916Z,47.20
2019-04-21T04:15:12.155Z,47.90
2019-04-21T04:20:16.078Z,48.10
2019-04-21T04:25:13.388Z,48.30
2019-04-21T04:30:21.633Z,48.70
2019-04-21T04:32:56.637Z,48.80
2019-04-21T04:40:23.306Z,49.20
2019-04-21T04:43:05.143Z,49.20
2019-04-21T04:45:38.782Z,49.20
2019-04-21T04:48:10.860Z,49.50
2019-04-21T04:50:47.419Z,49.60
2019-04-21T04:52:56.974Z,49.60
2019-04-21T04:55:35.824Z,49.50
2019-04-21T04:58:16.004Z,49.50
2019-04-21T05:03:05.437Z,49.30
2019-04-21T05:06:25.772Z,49.40
2019-04-21T05:11:30.864Z,49.20
2019-04-21T05:13:51.429Z,49.40
2019-04-21T05:16:28.924Z,50.00
2019-04-21T05:18:56.321Z,49.90
2019-04-21T05:21:24.828Z,49.80
2019-04-21T05:23:41.329Z,50.50
2019-04-21T05:26:00.075Z,50.30
2019-04-21T05:28:35.589Z,50.40
2019-04-21T05:31:34.953Z,50.40
2019-04-21T05:34:04.773Z,50.60
2019-04-21T05:36:53.911Z,50.80
2019-04-21T05:39:21.512Z,50.80
2019-04-21T05:41:41.819Z,50.60
2019-04-21T05:44:30.965Z,50.50
2019-04-21T05:47:03.771Z,50.80
2019-04-21T05:49:30.649Z,50.90
2019-04-21T05:51:57.045Z,51.30
2019-04-21T05:54:39.623Z,51.50
2019-04-21T05:57:02.413Z,51.60
2019-04-21T05:59:33.937Z,51.70
2019-04-21T06:02:13.616Z,51.80
2019-04-21T06:04:57.910Z,52.10
2019-04-21T06:07:17.755Z,52.10
2019-04-21T06:09:45.481Z,52.20
2019-04-21T06:12:10.077Z,52.30
2019-04-21T06:14:46.813Z,52.50
2019-04-21T06:17:13.469Z,52.60
2019-04-21T06:19:43.776Z,52.50
2019-04-21T06:22:07.731Z,51.80
2019-04-21T06:24:54.247Z,51.90
2019-04-21T06:27:26.410Z,51.70
2019-04-21T06:29:43.908Z,52.20
2019-04-21T06:34:59.084Z,52.50
2019-04-21T06:37:35.956Z,52.10
2019-04-21T06:40:06.450Z,52.50
2019-04-21T06:42:09.739Z,52.50
2019-04-21T06:44:53.804Z,52.40
2019-04-21T06:47:26.529Z,52.40
2019-04-21T06:49:45.673Z,51.90
2019-04-21T06:52:29.880Z,51.90
2019-04-21T06:54:49.473Z,52.20
2019-04-21T06:57:16.948Z,51.90
2019-04-21T06:59:46.547Z,52.00
2019-04-21T07:02:30.580Z,52.20
2019-04-21T07:04:50.259Z,51.70
2019-04-21T07:07:16.247Z,51.90
2019-04-21T07:10:01.464Z,51.60
2019-04-21T07:12:12.525Z,51.80
2019-04-21T07:14:45.471Z,51.20
2019-04-21T07:17:20.211Z,51.00
2019-04-21T07:19:49.938Z,51.00
2019-04-21T07:22:17.779Z,51.00
2019-04-21T07:24:49.326Z,50.60
2019-04-21T07:27:17.476Z,50.50
2019-04-21T07:29:50.512Z,50.50
2019-04-21T07:32:18.368Z,49.80
2019-04-21T07:34:49.834Z,49.70
2019-04-21T07:37:20.888Z,49.60
2019-04-21T07:39:46.648Z,49.30
2019-04-21T07:42:13.676Z,48.80
2019-04-21T07:44:40.826Z,48.30
2019-04-21T07:47:22.785Z,48.60
2019-04-21T07:49:59.079Z,47.20
2019-04-21T07:52:37.814Z,47.70
2019-04-21T07:55:18.700Z,46.50
2019-04-21T07:57:31.563Z,45.90
2019-04-21T08:00:15.013Z,45.40
2019-04-21T08:02:34.056Z,45.90
2019-04-21T08:05:13.542Z,45.10
2019-04-21T08:07:44.995Z,45.50
2019-04-21T08:10:07.939Z,44.90
2019-04-21T08:12:30.606Z,44.80
2019-04-21T08:15:09.687Z,46.10
2019-04-21T08:17:38.300Z,45.00
2019-04-21T08:20:08.534Z,44.40
2019-04-21T08:22:41.255Z,43.70
2019-04-21T08:25:10.382Z,44.60
2019-04-21T08:27:54.000Z,43.70
2019-04-21T08:30:17.359Z,44.00
2019-04-21T08:35:34.592Z,42.40
2019-04-21T08:37:36.987Z,41.60
2019-04-21T08:40:15.766Z,41.60
2019-04-21T08:42:44.684Z,41.50
2019-04-21T08:45:15.051Z,40.90
2019-04-21T08:47:46.219Z,40.20
2019-04-21T08:50:15.163Z,40.20
2019-04-21T08:55:25.310Z,39.40
2019-04-21T09:00:55.133Z,38.80
2019-04-21T09:03:44.736Z,40.00
2019-04-21T09:06:17.489Z,39.60
2019-04-21T09:08:39.301Z,40.40
2019-04-21T09:11:06.941Z,38.80
2019-04-21T09:13:36.945Z,38.20
2019-04-21T09:16:11.145Z,39.50
2019-04-21T09:18:37.440Z,38.70
2019-04-21T09:21:14.280Z,38.10
2019-04-21T09:23:39.123Z,38.80
2019-04-21T09:26:13.827Z,37.80
2019-04-21T09:28:37.087Z,38.90
2019-04-21T09:30:57.761Z,39.10
2019-04-21T09:33:28.053Z,38.00
2019-04-21T09:35:59.279Z,36.40
2019-04-21T09:38:33.798Z,36.30
2019-04-21T09:40:54.846Z,36.90
2019-04-21T09:43:34.293Z,36.00
2019-04-21T09:45:54.396Z,36.10
2019-04-21T09:48:25.903Z,35.80
2019-04-21T09:50:53.159Z,35.60
2019-04-21T09:53:29.217Z,34.10
2019-04-21T09:55:58.164Z,33.80
2019-04-21T09:58:31.137Z,34.00
2019-04-21T10:01:05.080Z,35.50
2019-04-21T10:03:24.229Z,34.60
2019-04-21T10:05:54.092Z,33.20
2019-04-21T10:08:22.953Z,34.80
2019-04-21T10:10:52.066Z,33.50
2019-04-21T10:13:20.876Z,33.60
2019-04-21T10:15:51.962Z,33.70
2019-04-21T10:18:21.757Z,31.10
2019-04-21T10:20:51.262Z,32.30
2019-04-21T10:23:21.123Z,30.00
2019-04-21T10:25:50.544Z,30.00
2019-04-21T10:28:19.398Z,29.00
2019-04-21T10:30:50.839Z,30.00
2019-04-21T10:33:19.559Z,29.50
2019-04-21T10:35:50.790Z,29.70
2019-04-21T10:38:29.297Z,29.10
2019-04-21T10:40:49.808Z,27.00
2019-04-21T10:43:22.145Z,23.60
2019-04-21T10:45:50.625Z,21.80
2019-04-21T10:48:19.220Z,21.70
2019-04-21T10:50:47.746Z,24.20
2019-04-21T10:53:18.820Z,22.60
2019-04-21T10:56:00.526Z,21.80
2019-04-21T10:58:20.355Z,23.60
2019-04-21T11:00:51.566Z,22.90
2019-04-21T11:03:29.065Z,21.80
2019-04-21T11:06:00.919Z,23.30
2019-04-21T11:08:35.675Z,23.30
2019-04-21T11:11:01.528Z,21.80
2019-04-21T11:13:30.748Z,21.10
2019-04-21T11:15:59.429Z,22.00
2019-04-21T11:18:28.239Z,20.90
2019-04-21T11:20:56.875Z,21.80
2019-04-21T11:23:52.155Z,21.90
2019-04-21T11:26:19.895Z,21.90
2019-04-21T11:28:52.663Z,21.90
2019-04-21T11:31:22.815Z,20.00
2019-04-21T11:33:51.440Z,19.10
2019-04-21T11:36:21.494Z,21.30
2019-04-21T11:39:11.006Z,19.00
2019-04-21T11:41:27.983Z,20.60
2019-04-21T11:43:57.215Z,22.90
2019-04-21T11:46:26.784Z,20.30
2019-04-21T11:48:59.746Z,19.30
2019-04-21T11:51:28.982Z,21.20
2019-04-21T11:54:01.156Z,19.50
2019-04-21T11:56:30.508Z,19.20
2019-04-21T11:58:59.664Z,19.70
2019-04-21T12:01:29.660Z,17.90
2019-04-21T12:03:59.870Z,18.40
2019-04-21T12:06:33.501Z,18.50
2019-04-21T12:09:01.290Z,19.40
2019-04-21T12:11:29.616Z,18.30
2019-04-21T12:13:58.484Z,19.20
2019-04-21T12:16:27.116Z,18.60
2019-04-21T12:18:56.772Z,16.80
2019-04-21T12:21:28.335Z,17.10
2019-04-21T12:23:56.649Z,17.50
2019-04-21T12:26:26.383Z,19.30
2019-04-21T12:28:57.647Z,17.20
2019-04-21T12:31:31.743Z,15.70
2019-04-21T12:34:03.666Z,17.90
2019-04-21T12:36:32.210Z,17.90
2019-04-21T12:39:03.294Z,16.30
2019-04-21T12:41:30.999Z,16.80
2019-04-21T12:44:00.450Z,16.80
2019-04-21T12:46:29.871Z,17.30
2019-04-21T12:48:59.882Z,17.70
2019-04-21T12:51:28.460Z,17.70
2019-04-21T12:53:57.433Z,18.30
2019-04-21T12:56:27.413Z,17.80
2019-04-21T12:58:57.543Z,17.90
2019-04-21T13:01:27.401Z,17.20
2019-04-21T13:03:56.137Z,18.10
2019-04-21T13:06:25.923Z,17.00
2019-04-21T13:09:01.448Z,16.10
2019-04-21T13:11:25.508Z,17.90
2019-04-21T13:13:54.182Z,18.00
2019-04-21T13:16:23.371Z,16.40
2019-04-21T13:18:53.338Z,16.80
2019-04-21T13:21:22.431Z,16.20
2019-04-21T13:23:51.114Z,17.70
2019-04-21T13:26:31.989Z,18.50
2019-04-21T13:28:50.120Z,17.90
2019-04-21T13:31:18.677Z,19.80
2019-04-21T13:33:48.111Z,17.00
2019-04-21T13:36:18.149Z,15.70
2019-04-21T13:39:24.951Z,18.30
2019-04-21T13:41:42.827Z,17.70
2019-04-21T13:44:15.630Z,16.80
2019-04-21T13:46:45.205Z,16.10
2019-04-21T13:49:14.334Z,18.40
2019-04-21T13:51:43.994Z,19.00
2019-04-21T13:54:13.833Z,16.80
2019-04-21T13:57:02.783Z,17.40
2019-04-21T13:59:31.991Z,19.00
2019-04-21T14:02:02.707Z,16.40
2019-04-21T14:04:33.576Z,18.70
2019-04-21T14:07:06.029Z,18.90
2019-04-21T14:09:43.770Z,19.50
2019-04-21T14:12:05.399Z,19.10
2019-04-21T14:14:34.554Z,17.50
2019-04-21T14:17:05.343Z,18.30
2019-04-21T14:19:35.121Z,18.00
2019-04-21T14:22:03.672Z,17.70
2019-04-21T14:24:32.900Z,18.00
2019-04-21T14:27:02.684Z,18.90
2019-04-21T14:29:31.318Z,18.00
2019-04-21T14:32:00.138Z,18.20
2019-04-21T14:34:30.117Z,18.20
2019-04-21T14:36:58.951Z,17.70
2019-04-21T14:39:28.255Z,19.30
2019-04-21T14:41:58.011Z,18.20
2019-04-21T14:44:27.196Z,18.40
2019-04-21T14:46:57.481Z,17.80
2019-04-21T14:49:42.636Z,18.50
2019-04-21T14:52:12.987Z,19.60
2019-04-21T14:54:51.888Z,18.90
2019-04-21T14:57:21.205Z,17.50
2019-04-21T14:59:51.070Z,17.70
2019-04-21T15:02:20.265Z,19.10
2019-04-21T15:04:49.320Z,18.10
2019-04-21T15:07:18.974Z,18.10
2019-04-21T15:09:58.757Z,17.60
2019-04-21T15:12:18.266Z,19.40
2019-04-21T15:14:47.662Z,18.80
2019-04-21T15:17:19.553Z,20.70
2019-04-21T15:19:53.691Z,18.20
2019-04-21T15:22:16.860Z,19.60
2019-04-21T15:24:45.329Z,20.50
2019-04-21T15:27:14.683Z,20.90
2019-04-21T15:29:44.839Z,19.00
2019-04-21T15:32:14.762Z,19.30
2019-04-21T15:34:44.392Z,18.30
2019-04-21T15:37:13.724Z,19.70
2019-04-21T15:39:42.535Z,21.60
2019-04-21T15:42:12.526Z,21.70
2019-04-21T15:44:41.184Z,19.50
2019-04-21T15:47:10.257Z,18.80
2019-04-21T15:50:00.922Z,19.90
2019-04-21T15:52:25.751Z,20.20
2019-04-21T15:54:56.899Z,20.50
2019-04-21T15:57:33.471Z,18.70
2019-04-21T16:00:06.714Z,19.70
2019-04-21T16:02:40.383Z,19.10
2019-04-21T16:05:10.907Z,20.30
2019-04-21T16:07:40.313Z,19.40
2019-04-21T16:10:10.683Z,20.00
2019-04-21T16:12:40.167Z,20.90
2019-04-21T16:15:10.441Z,21.90
2019-04-21T16:17:39.361Z,21.90
2019-04-21T16:20:10.209Z,21.60
2019-04-21T16:22:38.939Z,20.60
2019-04-21T16:25:17.039Z,21.20
2019-04-21T16:27:45.617Z,23.50
2019-04-21T16:30:15.694Z,22.50
2019-04-21T16:32:45.983Z,22.60
2019-04-21T16:35:16.458Z,22.80
2019-04-21T16:37:45.819Z,23.10
2019-04-21T16:40:14.683Z,23.20
2019-04-21T16:42:43.280Z,22.60
2019-04-21T16:45:12.877Z,23.10
2019-04-21T16:47:44.264Z,22.40
2019-04-21T16:50:13.956Z,23.00
2019-04-21T16:52:48.000Z,24.50
2019-04-21T16:55:35.258Z,23.70
2019-04-21T16:58:14.552Z,23.30
2019-04-21T17:00:45.175Z,23.30
2019-04-21T17:03:10.825Z,22.90
2019-04-21T17:05:40.362Z,23.30
2019-04-21T17:08:11.035Z,23.50
2019-04-21T17:10:41.674Z,25.20
2019-04-21T17:13:09.943Z,24.80
2019-04-21T17:15:56.669Z,23.60
2019-04-21T17:18:24.533Z,24.40
2019-04-21T17:20:46.628Z,24.00
2019-04-21T17:23:11.741Z,24.10
2019-04-21T17:25:41.480Z,24.70
2019-04-21T17:28:10.065Z,25.40
2019-04-21T17:30:40.272Z,25.80
2019-04-21T17:33:18.186Z,26.60
2019-04-21T17:35:42.713Z,25.70
2019-04-21T17:38:12.086Z,26.10
2019-04-21T17:40:42.190Z,26.80
2019-04-21T17:43:14.760Z,27.40
2019-04-21T17:45:41.471Z,26.60
2019-04-21T17:48:13.913Z,26.50
2019-04-21T17:50:56.722Z,26.60
2019-04-21T17:53:42.942Z,27.00
2019-04-21T17:56:32.362Z,27.00
2019-04-21T17:58:56.792Z,27.00
2019-04-21T18:01:32.223Z,27.60
2019-04-21T18:04:05.287Z,27.20
2019-04-21T18:06:42.302Z,27.20
2019-04-21T18:09:18.878Z,27.10
2019-04-21T18:11:42.931Z,27.30
2019-04-21T18:13:51.492Z,27.50
2019-04-21T18:16:28.908Z,27.80
2019-04-21T18:18:50.769Z,28.10
2019-04-21T18:21:26.963Z,27.60
2019-04-21T18:24:07.413Z,27.60
2019-04-21T18:26:40.606Z,28.00
2019-04-21T18:29:03.484Z,28.10
2019-04-21T18:31:38.741Z,28.20
2019-04-21T18:34:20.231Z,28.30
2019-04-21T18:36:52.106Z,28.70
2019-04-21T18:39:38.183Z,29.40
2019-04-21T18:42:25.000Z,29.70
2019-04-21T18:45:22.019Z,28.90
2019-04-21T18:47:43.883Z,29.20
2019-04-21T18:49:58.415Z,29.30
2019-04-21T18:52:49.589Z,29.50
2019-04-21T18:55:18.942Z,30.20
2019-04-21T18:57:42.272Z,30.40
2019-04-21T19:00:15.374Z,30.40
2019-04-21T19:05:15.949Z,31.20
2019-04-21T19:08:03.153Z,31.30
2019-04-21T19:10:36.296Z,31.60
2019-04-21T19:15:28.182Z,31.80
2019-04-21T19:18:35.136Z,32.80
2019-04-21T19:20:29.836Z,32.60
2019-04-21T19:22:57.253Z,33.40
2019-04-21T19:25:36.520Z,32.90
2019-04-21T19:28:01.554Z,33.40
2019-04-21T19:33:06.917Z,34.20
2019-04-21T19:35:17.352Z,33.40
2019-04-21T19:37:56.413Z,34.40
2019-04-21T19:40:39.150Z,34.30
2019-04-21T19:42:57.778Z,35.20
2019-04-21T19:45:33.220Z,34.70
2019-04-21T19:48:08.145Z,34.60
2019-04-21T19:50:42.438Z,35.00
2019-04-21T19:52:57.726Z,35.40
2019-04-21T19:55:18.577Z,35.60
2019-04-21T19:57:47.153Z,35.80
2019-04-21T20:00:17.429Z,35.30
2019-04-21T20:02:46.448Z,36.00
2019-04-21T20:05:24.238Z,36.60
2019-04-21T20:08:03.640Z,36.50
2019-04-21T20:10:37.937Z,36.90
2019-04-21T20:13:07.214Z,37.30
2019-04-21T20:15:42.216Z,36.40
2019-04-21T20:18:00.277Z,36.50
2019-04-21T20:20:17.287Z,37.10
2019-04-21T20:22:51.810Z,36.60
2019-04-21T20:25:23.074Z,36.00
2019-04-21T20:28:00.776Z,35.90
2019-04-21T20:30:40.456Z,37.10
2019-04-21T20:33:31.869Z,37.20
2019-04-21T20:35:46.555Z,36.60
2019-04-21T20:38:08.374Z,36.50
2019-04-21T20:40:31.825Z,36.60
2019-04-21T20:43:11.453Z,36.60
2019-04-21T20:47:55.766Z,37.00
2019-04-21T20:50:33.442Z,37.30
2019-04-21T20:53:11.279Z,37.40
2019-04-21T20:55:35.502Z,37.10
2019-04-21T20:58:04.169Z,37.90
2019-04-21T21:00:49.099Z,37.50
2019-04-21T21:03:11.953Z,37.30
2019-04-21T21:05:39.861Z,37.50
2019-04-21T21:08:21.461Z,37.40
2019-04-21T21:10:41.459Z,37.40
2019-04-21T21:13:22.488Z,37.80
2019-04-21T21:15:51.360Z,37.80
2019-04-21T21:18:26.496Z,37.50
2019-04-21T21:20:49.784Z,37.60
2019-04-21T21:23:11.571Z,37.70
2019-04-21T21:26:07.048Z,38.00
2019-04-21T21:28:09.006Z,38.30
2019-04-21T21:30:41.520Z,37.80
2019-04-21T21:33:21.430Z,38.20
2019-04-21T21:35:43.790Z,38.60
2019-04-21T21:38:22.357Z,38.40
2019-04-21T21:40:48.999Z,38.60
2019-04-21T21:43:23.613Z,38.80
2019-04-21T21:45:55.697Z,38.80
2019-04-21T21:48:37.884Z,40.00
2019-04-21T21:51:02.265Z,39.70
2019-04-21T21:53:25.461Z,39.80
2019-04-21T21:55:53.031Z,39.40
2019-04-21T21:58:29.894Z,39.90
2019-04-21T22:00:58.509Z,40.10
2019-04-21T22:03:33.006Z,40.50
2019-04-21T22:06:01.906Z,40.80
2019-04-21T22:08:25.594Z,40.50
2019-04-21T22:10:54.996Z,40.60
2019-04-21T22:13:35.764Z,41.00
2019-04-21T22:15:56.459Z,41.10
2019-04-21T22:18:39.230Z,41.30
2019-04-21T22:21:09.121Z,41.80
2019-04-21T22:23:36.907Z,41.90
2019-04-21T22:25:55.479Z,41.90
2019-04-21T22:28:25.313Z,42.20
2019-04-21T22:30:55.168Z,42.10
2019-04-21T22:33:25.900Z,41.90
2019-04-21T22:36:02.684Z,42.10
2019-04-21T22:38:41.264Z,42.70
2019-04-21T22:41:09.592Z,42.60
2019-04-21T22:43:32.827Z,42.60
2019-04-21T22:45:55.895Z,43.00
2019-04-21T22:48:28.253Z,43.00
2019-04-21T22:50:54.675Z,43.10
2019-04-21T22:53:49.014Z,43.40
2019-04-21T22:56:23.631Z,44.00
2019-04-21T22:58:46.568Z,44.30
2019-04-21T23:01:17.782Z,44.60
2019-04-21T23:03:52.140Z,44.70
2019-04-21T23:06:22.056Z,45.10
2019-04-21T23:08:48.073Z,45.70
2019-04-21T23:11:18.118Z,45.20
2019-04-21T23:13:55.625Z,45.10
2019-04-21T23:16:21.466Z,45.30
2019-04-21T23:19:08.130Z,45.60
2019-04-21T23:21:30.485Z,46.50
2019-04-21T23:24:05.804Z,46.60
2019-04-21T23:26:37.689Z,46.90
2019-04-21T23:29:09.029Z,47.20
2019-04-21T23:31:40.202Z,46.50
2019-04-21T23:33:50.373Z,46.60
2019-04-21T23:36:24.170Z,46.50
2019-04-21T23:38:52.883Z,47.10
2019-04-21T23:41:19.498Z,46.80
2019-04-21T23:43:53.091Z,47.20
2019-04-21T23:46:25.772Z,47.50
2019-04-21T23:49:01.729Z,48.00
2019-04-21T23:51:33.303Z,48.00
2019-04-21T23:53:49.207Z,48.20
2019-04-21T23:56:25.590Z,48.40
2019-04-21T23:58:56.225Z,48.50
